createdAt,value
2019-04-07T00:01:31.796Z,45.40
2019-04-07T00:04:02.358Z,45.20
2019-04-07T00:06:35.044Z,46.10
2019-04-07T00:09:07.424Z,45.60
2019-04-07T00:11:38.406Z,45.50
2019-04-07T00:14:09.523Z,45.60
2019-04-07T00:16:40.301Z,45.60
2019-04-07T00:19:11.148Z,45.70
2019-04-07T00:21:43.636Z,45.60
2019-04-07T00:24:14.605Z,45.70
2019-04-07T00:26:45.117Z,45.80
2019-04-07T00:29:15.938Z,45.80
2019-04-07T00:31:46.821Z,46.00
2019-04-07T00:34:17.475Z,45.90
2019-04-07T00:36:48.161Z,46.20
2019-04-07T00:39:19.099Z,46.10
2019-04-07T00:41:50.756Z,46.20
2019-04-07T00:44:21.415Z,46.20
2019-04-07T00:46:51.868Z,46.30
2019-04-07T00:49:23.361Z,46.40
2019-04-07T00:51:55.046Z,46.20
2019-04-07T00:54:25.688Z,46.20
2019-04-07T00:56:56.574Z,46.30
2019-04-07T00:59:27.634Z,46.30
2019-04-07T01:01:58.791Z,46.50
2019-04-07T01:04:29.459Z,46.90
2019-04-07T01:07:00.908Z,47.20
2019-04-07T01:09:31.996Z,47.90
2019-04-07T01:12:03.116Z,48.30
2019-04-07T01:14:33.794Z,48.30
2019-04-07T01:17:06.156Z,48.30
2019-04-07T01:19:38.044Z,48.20
2019-04-07T01:22:09.958Z,48.60
2019-04-07T01:24:40.705Z,48.40
2019-04-07T01:27:13.758Z,48.50
2019-04-07T01:29:44.351Z,48.30
2019-04-07T01:32:16.118Z,48.40
2019-04-07T01:34:46.934Z,48.30
2019-04-07T01:37:17.522Z,48.10
2019-04-07T01:39:50.096Z,48.20
2019-04-07T01:42:38.407Z,48.30
2019-04-07T01:45:34.382Z,48.30
2019-04-07T01:48:13.935Z,48.40
2019-04-07T01:51:01.471Z,48.40
2019-04-07T01:54:10.106Z,48.30
2019-04-07T01:57:03.350Z,48.50
2019-04-07T01:59:54.028Z,49.00
2019-04-07T02:02:43.664Z,49.30
2019-04-07T02:05:31.427Z,49.60
2019-04-07T02:08:24.085Z,49.50
2019-04-07T02:11:14.597Z,49.40
2019-04-07T02:14:03.874Z,49.30
2019-04-07T02:16:47.755Z,49.50
2019-04-07T02:19:37.289Z,49.80
2019-04-07T02:22:26.347Z,50.10
2019-04-07T02:25:14.698Z,50.10
2019-04-07T02:27:55.652Z,50.00
2019-04-07T02:30:35.239Z,49.90
2019-04-07T02:33:24.981Z,50.00
2019-04-07T02:36:21.380Z,50.30
2019-04-07T02:39:13.531Z,50.50
2019-04-07T02:42:08.771Z,50.30
2019-04-07T02:45:02.562Z,50.10
2019-04-07T02:47:39.420Z,49.80
2019-04-07T02:50:33.261Z,49.60
2019-04-07T02:53:38.017Z,49.50
2019-04-07T02:56:18.107Z,49.60
2019-04-07T02:59:23.185Z,49.70
2019-04-07T03:02:12.042Z,50.00
2019-04-07T03:04:52.436Z,49.90
2019-04-07T03:07:32.598Z,49.70
2019-04-07T03:10:10.906Z,49.40
2019-04-07T03:13:01.023Z,49.10
2019-04-07T03:15:56.789Z,49.10
2019-04-07T03:18:46.322Z,49.20
2019-04-07T03:21:45.749Z,49.20
2019-04-07T03:24:26.675Z,49.10
2019-04-07T03:27:10.109Z,49.20
2019-04-07T03:29:47.446Z,49.20
2019-04-07T03:32:38.825Z,49.40
2019-04-07T03:35:34.147Z,49.50
2019-04-07T03:38:25.812Z,49.60
2019-04-07T03:41:10.262Z,49.40
2019-04-07T03:43:51.180Z,49.50
2019-04-07T03:46:32.670Z,49.60
2019-04-07T03:49:11.779Z,49.70
2019-04-07T03:51:59.818Z,49.90
2019-04-07T03:54:49.308Z,50.20
2019-04-07T03:57:26.351Z,50.60
2019-04-07T04:00:19.192Z,50.80
2019-04-07T04:03:07.221Z,51.40
2019-04-07T04:06:04.658Z,51.20
2019-04-07T04:08:52.891Z,51.40
2019-04-07T04:11:40.639Z,51.50
2019-04-07T04:14:16.743Z,51.70
2019-04-07T04:16:50.915Z,51.80
2019-04-07T04:19:23.332Z,52.80
2019-04-07T04:21:54.778Z,52.30
2019-04-07T04:24:26.983Z,52.50
2019-04-07T04:27:00.992Z,52.50
2019-04-07T04:29:33.339Z,52.50
2019-04-07T04:32:05.754Z,52.30
2019-04-07T04:34:36.978Z,52.20
2019-04-07T04:37:08.117Z,52.70
2019-04-07T04:39:39.633Z,53.50
2019-04-07T04:42:10.468Z,53.30
2019-04-07T04:44:42.254Z,53.10
2019-04-07T04:47:14.991Z,52.70
2019-04-07T04:49:46.608Z,52.50
2019-04-07T04:52:18.063Z,52.40
2019-04-07T04:54:49.723Z,52.50
2019-04-07T04:57:21.760Z,52.70
2019-04-07T04:59:55.838Z,53.00
2019-04-07T05:02:27.657Z,53.00
2019-04-07T05:04:59.411Z,53.00
2019-04-07T05:07:30.214Z,52.60
2019-04-07T05:10:01.589Z,52.40
2019-04-07T05:12:33.517Z,52.30
2019-04-07T05:15:04.154Z,51.90
2019-04-07T05:17:35.401Z,52.20
2019-04-07T05:20:06.850Z,52.50
2019-04-07T05:22:38.024Z,52.50
2019-04-07T05:25:09.449Z,53.40
2019-04-07T05:27:41.609Z,52.90
2019-04-07T05:30:12.991Z,52.80
2019-04-07T05:32:44.291Z,52.90
2019-04-07T05:35:15.776Z,52.90
2019-04-07T05:37:58.822Z,52.80
2019-04-07T05:40:19.217Z,52.70
2019-04-07T05:42:50.991Z,53.00
2019-04-07T05:45:22.661Z,53.10
2019-04-07T05:47:55.428Z,52.80
2019-04-07T05:50:28.072Z,52.70
2019-04-07T05:52:59.855Z,52.70
2019-04-07T05:55:32.052Z,52.60
2019-04-07T05:58:05.014Z,52.80
2019-04-07T06:00:35.308Z,52.70
2019-04-07T06:03:08.370Z,53.00
2019-04-07T06:05:38.912Z,53.10
2019-04-07T06:08:22.548Z,53.00
2019-04-07T06:10:43.609Z,52.80
2019-04-07T06:13:15.764Z,53.70
2019-04-07T06:15:46.678Z,53.40
2019-04-07T06:18:18.483Z,53.20
2019-04-07T06:20:49.819Z,53.20
2019-04-07T06:23:24.241Z,53.00
2019-04-07T06:25:57.150Z,53.00
2019-04-07T06:28:26.779Z,52.60
2019-04-07T06:31:00.165Z,52.70
2019-04-07T06:33:30.521Z,52.60
2019-04-07T06:36:01.043Z,52.60
2019-04-07T06:38:34.975Z,52.40
2019-04-07T06:41:04.069Z,52.00
2019-04-07T06:43:38.125Z,52.30
2019-04-07T06:46:28.476Z,52.70
2019-04-07T06:49:23.206Z,52.70
2019-04-07T06:52:25.867Z,53.30
2019-04-07T06:55:19.040Z,53.20
2019-04-07T06:58:15.324Z,53.20
2019-04-07T07:01:20.033Z,53.20
2019-04-07T07:04:24.486Z,53.20
2019-04-07T07:07:26.104Z,52.80
2019-04-07T07:10:26.163Z,52.60
2019-04-07T07:12:59.912Z,52.50
2019-04-07T07:15:46.079Z,52.60
2019-04-07T07:18:35.773Z,52.20
2019-04-07T07:21:13.366Z,52.50
2019-04-07T07:23:47.647Z,52.60
2019-04-07T07:26:17.910Z,52.60
2019-04-07T07:28:48.610Z,52.40
2019-04-07T07:31:22.791Z,52.60
2019-04-07T07:33:52.871Z,51.80
2019-04-07T07:36:24.291Z,51.70
2019-04-07T07:39:00.578Z,51.40
2019-04-07T07:41:27.980Z,51.30
2019-04-07T07:44:03.251Z,51.20
2019-04-07T07:46:30.824Z,51.20
2019-04-07T07:49:02.151Z,51.30
2019-04-07T07:51:33.719Z,51.60
2019-04-07T07:54:05.620Z,51.20
2019-04-07T07:56:36.715Z,51.60
2019-04-07T07:59:07.737Z,51.50
2019-04-07T08:01:38.270Z,51.50
2019-04-07T08:04:09.765Z,51.50
2019-04-07T08:06:41.060Z,51.00
2019-04-07T08:09:15.233Z,51.10
2019-04-07T08:11:44.547Z,51.10
2019-04-07T08:14:18.238Z,51.10
2019-04-07T08:16:47.954Z,50.90
2019-04-07T08:19:19.010Z,51.20
2019-04-07T08:21:51.854Z,50.70
2019-04-07T08:24:22.905Z,50.60
2019-04-07T08:26:56.251Z,50.70
2019-04-07T08:29:26.927Z,50.30
2019-04-07T08:31:58.728Z,49.80
2019-04-07T08:34:32.968Z,49.20
2019-04-07T08:37:04.809Z,49.60
2019-04-07T08:39:36.512Z,49.10
2019-04-07T08:42:11.027Z,49.30
2019-04-07T08:44:41.952Z,49.00
2019-04-07T08:47:19.737Z,48.70
2019-04-07T08:49:47.081Z,48.50
2019-04-07T08:52:19.616Z,48.40
2019-04-07T08:54:52.410Z,48.50
2019-04-07T08:57:22.894Z,48.20
2019-04-07T08:59:56.295Z,48.40
2019-04-07T09:02:29.181Z,48.40
2019-04-07T09:05:01.246Z,48.30
2019-04-07T09:07:36.515Z,48.20
2019-04-07T09:10:11.515Z,48.20
2019-04-07T09:12:44.007Z,48.40
2019-04-07T09:15:21.182Z,48.30
2019-04-07T09:18:04.428Z,48.60
2019-04-07T09:21:00.753Z,48.90
2019-04-07T09:24:02.461Z,48.50
2019-04-07T09:26:42.102Z,48.50
2019-04-07T09:29:46.105Z,48.50
2019-04-07T09:32:42.749Z,48.00
2019-04-07T09:35:41.466Z,47.60
2019-04-07T09:38:29.411Z,47.70
2019-04-07T09:41:21.579Z,47.50
2019-04-07T09:44:13.613Z,47.30
2019-04-07T09:47:06.973Z,47.40
2019-04-07T09:50:05.465Z,47.90
2019-04-07T09:53:04.354Z,47.80
2019-04-07T09:55:50.346Z,47.40
2019-04-07T09:58:32.050Z,47.10
2019-04-07T10:01:09.274Z,46.60
2019-04-07T10:03:57.612Z,47.10
2019-04-07T10:06:45.758Z,47.10
2019-04-07T10:09:38.618Z,47.50
2019-04-07T10:12:30.115Z,47.30
2019-04-07T10:15:22.481Z,46.90
2019-04-07T10:18:08.819Z,47.20
2019-04-07T10:20:58.762Z,46.70
2019-04-07T10:23:45.849Z,46.50
2019-04-07T10:26:36.192Z,46.20
2019-04-07T10:29:16.666Z,46.50
2019-04-07T10:31:57.426Z,46.30
2019-04-07T10:34:47.119Z,46.20
2019-04-07T10:37:33.612Z,44.90
2019-04-07T10:40:20.348Z,43.00
2019-04-07T10:43:26.093Z,42.40
2019-04-07T10:46:11.218Z,41.50
2019-04-07T10:49:06.818Z,40.80
2019-04-07T10:52:07.515Z,40.50
2019-04-07T10:55:04.883Z,40.00
2019-04-07T10:57:58.417Z,39.50
2019-04-07T11:00:51.001Z,39.00
2019-04-07T11:03:40.475Z,39.00
2019-04-07T11:06:41.625Z,39.10
2019-04-07T11:09:29.985Z,39.50
2019-04-07T11:12:23.238Z,39.90
2019-04-07T11:15:13.776Z,40.70
2019-04-07T11:17:56.079Z,41.70
2019-04-07T11:20:45.610Z,41.60
2019-04-07T11:23:28.463Z,41.00
2019-04-07T11:26:40.599Z,39.90
2019-04-07T11:29:38.684Z,39.60
2019-04-07T11:32:19.581Z,39.70
2019-04-07T11:35:00.523Z,39.30
2019-04-07T11:37:37.565Z,37.80
2019-04-07T11:40:19.379Z,36.00
2019-04-07T11:42:58.904Z,34.70
2019-04-07T11:46:00.031Z,32.90
2019-04-07T11:48:35.384Z,32.30
2019-04-07T11:51:26.030Z,32.10
2019-04-07T11:54:15.187Z,32.10
2019-04-07T11:56:57.594Z,33.40
2019-04-07T12:00:05.297Z,34.20
2019-04-07T12:03:00.875Z,34.40
2019-04-07T12:05:46.863Z,33.30
2019-04-07T12:08:35.221Z,31.20
2019-04-07T12:11:34.396Z,29.00
2019-04-07T12:14:29.185Z,28.20
2019-04-07T12:17:12.578Z,27.40
2019-04-07T12:19:56.541Z,27.20
2019-04-07T12:23:03.734Z,27.10
2019-04-07T12:25:41.562Z,27.30
2019-04-07T12:28:36.511Z,27.00
2019-04-07T12:31:24.965Z,26.60
2019-04-07T12:34:15.333Z,26.30
2019-04-07T12:37:06.850Z,26.00
2019-04-07T12:39:56.659Z,25.60
2019-04-07T12:42:47.097Z,25.50
2019-04-07T12:45:29.903Z,25.40
2019-04-07T12:48:30.014Z,25.40
2019-04-07T12:51:27.655Z,25.10
2019-04-07T12:54:17.923Z,24.40
2019-04-07T12:57:23.085Z,24.40
2019-04-07T13:00:21.147Z,24.90
2019-04-07T13:02:58.571Z,25.10
2019-04-07T13:06:06.251Z,25.20
2019-04-07T13:08:58.136Z,25.10
2019-04-07T13:11:40.202Z,24.90
2019-04-07T13:14:40.401Z,24.40
2019-04-07T13:17:38.046Z,24.10
2019-04-07T13:20:28.752Z,24.20
2019-04-07T13:23:19.132Z,24.70
2019-04-07T13:25:56.744Z,24.90
2019-04-07T13:28:51.676Z,24.80
2019-04-07T13:31:40.029Z,25.00
2019-04-07T13:34:31.075Z,25.10
2019-04-07T13:37:33.108Z,26.00
2019-04-07T13:40:14.087Z,28.00
2019-04-07T13:43:13.414Z,29.60
2019-04-07T13:46:01.223Z,31.40
2019-04-07T13:48:51.151Z,33.10
2019-04-07T13:51:47.186Z,34.10
2019-04-07T13:54:51.659Z,35.10
2019-04-07T13:57:39.257Z,35.90
2019-04-07T14:00:37.101Z,36.60
2019-04-07T14:03:30.449Z,36.60
2019-04-07T14:06:14.290Z,36.70
2019-04-07T14:09:18.012Z,36.90
2019-04-07T14:12:10.575Z,37.20
2019-04-07T14:15:04.098Z,37.00
2019-04-07T14:17:57.951Z,37.20
2019-04-07T14:21:00.927Z,37.20
2019-04-07T14:23:57.167Z,37.50
2019-04-07T14:26:46.768Z,37.60
2019-04-07T14:29:35.903Z,37.60
2019-04-07T14:32:24.491Z,37.50
2019-04-07T14:35:08.197Z,37.40
2019-04-07T14:37:44.867Z,37.40
2019-04-07T14:40:30.479Z,37.40
2019-04-07T14:43:33.216Z,37.50
2019-04-07T14:46:29.530Z,37.20
2019-04-07T14:49:21.817Z,36.80
2019-04-07T14:52:13.373Z,36.90
2019-04-07T14:55:04.891Z,37.20
2019-04-07T14:57:45.857Z,37.10
2019-04-07T15:00:27.058Z,37.10
2019-04-07T15:02:58.409Z,37.10
2019-04-07T15:05:32.694Z,37.60
2019-04-07T15:08:22.534Z,37.30
2019-04-07T15:10:56.297Z,37.00
2019-04-07T15:13:29.187Z,36.80
2019-04-07T15:16:00.911Z,36.60
2019-04-07T15:18:32.025Z,36.30
2019-04-07T15:21:03.471Z,36.60
2019-04-07T15:23:34.728Z,37.00
2019-04-07T15:26:06.199Z,36.90
2019-04-07T15:28:38.455Z,37.10
2019-04-07T15:31:10.098Z,37.00
2019-04-07T15:33:41.206Z,37.30
2019-04-07T15:36:12.789Z,36.90
2019-04-07T15:38:44.095Z,36.40
2019-04-07T15:41:17.605Z,36.00
2019-04-07T15:43:47.522Z,36.50
2019-04-07T15:46:19.597Z,36.40
2019-04-07T15:48:54.312Z,35.30
2019-04-07T15:51:27.046Z,35.40
2019-04-07T15:53:59.429Z,36.10
2019-04-07T15:56:30.366Z,36.70
2019-04-07T15:59:02.240Z,36.90
2019-04-07T16:01:33.735Z,37.20
2019-04-07T16:04:06.110Z,37.50
2019-04-07T16:06:37.189Z,37.70
2019-04-07T16:09:14.004Z,37.40
2019-04-07T16:11:42.364Z,37.70
2019-04-07T16:14:15.905Z,38.10
2019-04-07T16:16:47.244Z,38.10
2019-04-07T16:19:24.934Z,38.20
2019-04-07T16:21:51.449Z,38.40
2019-04-07T16:24:23.000Z,39.00
2019-04-07T16:26:54.733Z,39.20
2019-04-07T16:29:25.801Z,39.50
2019-04-07T16:31:58.628Z,39.70
2019-04-07T16:34:30.460Z,40.10
2019-04-07T16:37:01.862Z,40.00
2019-04-07T16:39:35.233Z,40.20
2019-04-07T16:42:07.373Z,40.00
2019-04-07T16:44:42.486Z,39.40
2019-04-07T16:47:20.874Z,39.20
2019-04-07T16:49:48.841Z,39.20
2019-04-07T16:52:20.471Z,39.30
2019-04-07T16:54:52.685Z,39.50
2019-04-07T16:57:27.338Z,39.40
2019-04-07T16:59:56.346Z,39.70
2019-04-07T17:02:27.429Z,39.80
2019-04-07T17:04:59.318Z,40.00
2019-04-07T17:07:31.744Z,39.90
2019-04-07T17:10:03.738Z,39.90
2019-04-07T17:12:35.545Z,40.10
2019-04-07T17:15:07.860Z,41.30
2019-04-07T17:17:40.042Z,42.70
2019-04-07T17:20:13.533Z,43.40
2019-04-07T17:22:47.718Z,44.00
2019-04-07T17:25:17.815Z,45.60
2019-04-07T17:27:49.796Z,45.70
2019-04-07T17:30:24.381Z,45.90
2019-04-07T17:32:53.868Z,45.80
2019-04-07T17:35:24.911Z,45.80
2019-04-07T17:38:01.696Z,46.20
2019-04-07T17:40:32.955Z,46.10
2019-04-07T17:43:30.941Z,46.20
2019-04-07T17:46:16.971Z,46.40
2019-04-07T17:49:06.709Z,46.80
2019-04-07T17:52:07.025Z,47.40
2019-04-07T17:54:54.144Z,47.10
2019-04-07T17:57:36.623Z,47.30
2019-04-07T18:00:19.296Z,47.30
2019-04-07T18:03:06.091Z,47.50
2019-04-07T18:05:45.386Z,47.70
2019-04-07T18:08:36.200Z,47.80
2019-04-07T18:11:32.853Z,47.80
2019-04-07T18:14:28.365Z,47.90
2019-04-07T18:17:26.805Z,48.00
2019-04-07T18:20:14.020Z,48.00
2019-04-07T18:23:07.509Z,48.10
2019-04-07T18:26:09.895Z,48.20
2019-04-07T18:28:52.603Z,48.40
2019-04-07T18:31:42.019Z,48.40
2019-04-07T18:34:46.973Z,48.50
2019-04-07T18:37:42.165Z,48.50
2019-04-07T18:40:50.629Z,48.40
2019-04-07T18:44:00.744Z,48.70
2019-04-07T18:46:53.308Z,48.70
2019-04-07T18:49:34.295Z,49.00
2019-04-07T18:52:43.072Z,49.10
2019-04-07T18:55:38.194Z,49.30
2019-04-07T18:58:37.235Z,49.50
2019-04-07T19:01:29.221Z,49.50
2019-04-07T19:04:12.155Z,49.50
2019-04-07T19:06:50.260Z,49.60
2019-04-07T19:09:46.297Z,49.50
2019-04-07T19:12:36.472Z,49.70
2019-04-07T19:15:26.393Z,49.90
2019-04-07T19:18:20.420Z,50.00
2019-04-07T19:21:16.287Z,50.20
2019-04-07T19:24:04.498Z,50.50
2019-04-07T19:26:56.214Z,50.60
2019-04-07T19:42:06.928Z,51.10
2019-04-07T19:45:04.016Z,50.90
2019-04-07T19:48:01.947Z,51.10
2019-04-07T19:50:54.932Z,51.10
2019-04-07T19:53:45.717Z,51.10
2019-04-07T19:56:35.135Z,51.40
2019-04-07T19:59:41.622Z,51.50
2019-04-07T20:02:30.526Z,51.30
2019-04-07T20:05:19.513Z,51.50
2019-04-07T20:08:09.819Z,51.50
2019-04-07T20:11:03.529Z,51.60
2019-04-07T20:13:46.604Z,51.40
2019-04-07T20:16:41.305Z,51.50
2019-04-07T20:19:36.162Z,51.40
2019-04-07T20:22:31.658Z,51.00
2019-04-07T20:25:20.498Z,50.90
2019-04-07T20:28:13.110Z,50.90
2019-04-07T20:31:10.506Z,51.30
2019-04-07T20:34:02.214Z,51.40
2019-04-07T20:36:56.495Z,51.40
2019-04-07T20:39:53.189Z,51.30
2019-04-07T20:42:31.228Z,51.40
2019-04-07T20:45:21.215Z,51.20
2019-04-07T20:48:18.067Z,51.20
2019-04-07T20:51:04.646Z,51.40
2019-04-07T20:53:52.008Z,50.90
2019-04-07T20:56:43.550Z,50.80
2019-04-07T20:59:32.025Z,51.50
2019-04-07T21:02:25.023Z,51.70
2019-04-07T21:05:10.155Z,51.70
2019-04-07T21:07:59.714Z,52.10
2019-04-07T21:10:48.238Z,52.20
2019-04-07T21:13:30.875Z,52.30
2019-04-07T21:16:30.022Z,52.30
2019-04-07T21:19:27.344Z,52.30
2019-04-07T21:22:05.535Z,52.30
2019-04-07T21:24:58.655Z,52.10
2019-04-07T21:27:50.922Z,52.50
2019-04-07T21:30:35.116Z,52.60
2019-04-07T21:33:22.126Z,52.50
2019-04-07T21:36:21.816Z,52.60
2019-04-07T21:39:14.546Z,52.50
2019-04-07T21:41:56.293Z,52.60
2019-04-07T21:44:48.898Z,52.80
2019-04-07T21:47:38.594Z,52.80
2019-04-07T21:50:28.525Z,52.70
2019-04-07T21:53:10.102Z,52.80
2019-04-07T21:56:18.610Z,52.50
2019-04-07T21:59:08.020Z,52.40
2019-04-07T22:01:47.514Z,52.30
2019-04-07T22:04:38.185Z,52.30
2019-04-07T22:07:29.662Z,52.40
2019-04-07T22:10:03.101Z,52.10
2019-04-07T22:12:34.481Z,51.90
2019-04-07T22:15:08.756Z,51.90
2019-04-07T22:17:39.433Z,51.80
2019-04-07T22:20:14.785Z,52.20
2019-04-07T22:22:44.547Z,52.00
2019-04-07T22:25:21.333Z,52.00
2019-04-07T22:27:54.477Z,52.10
2019-04-07T22:30:24.254Z,52.30
2019-04-07T22:32:55.627Z,52.50
2019-04-07T22:35:26.604Z,52.70
2019-04-07T22:37:57.112Z,52.80
2019-04-07T22:40:32.962Z,53.00
2019-04-07T22:43:01.814Z,53.60
2019-04-07T22:45:32.804Z,53.50
2019-04-07T22:48:03.480Z,53.80
2019-04-07T22:50:37.210Z,53.90
2019-04-07T22:53:07.365Z,53.90
2019-04-07T22:55:38.719Z,53.80
2019-04-07T22:58:09.161Z,53.30
2019-04-07T23:00:40.344Z,53.50
2019-04-07T23:03:12.786Z,53.70
2019-04-07T23:05:43.355Z,54.70
2019-04-07T23:08:14.561Z,54.80
2019-04-07T23:10:46.255Z,55.50
2019-04-07T23:13:17.037Z,55.50
2019-04-07T23:15:48.587Z,55.60
2019-04-07T23:18:20.747Z,55.10
2019-04-07T23:20:51.568Z,55.00
2019-04-07T23:23:22.173Z,54.80
2019-04-07T23:25:55.679Z,54.50
2019-04-07T23:28:27.039Z,54.60
2019-04-07T23:30:57.789Z,54.70
2019-04-07T23:33:29.802Z,54.60
2019-04-07T23:36:00.587Z,54.70
2019-04-07T23:38:34.442Z,54.70
2019-04-07T23:41:05.416Z,54.80
2019-04-07T23:43:36.152Z,54.70
2019-04-07T23:46:19.434Z,54.60
2019-04-07T23:48:40.253Z,54.60
2019-04-07T23:51:12.257Z,54.50
2019-04-07T23:54:11.129Z,54.20
2019-04-07T23:56:43.972Z,54.10
2019-04-07T23:59:16.646Z,54.00
